Arlington, KY

9:59 PM CST on March 05, 2015 (GMT -0600)
Metropolis | Change Station
CLOSE
Current Station
Airport
Location: Metropolis,
Elevation: 384 ft
Nearby Weather Stations
Active Advisory: Flood Warning Active Notice: Record Report, Local Storm Report

Elev 384 ft 37.18 °N, 88.75 °W | Updated 24 minutes ago

Partly Cloudy
Partly Cloudy
14 °F
Feels Like 8 °F
N
4
Wind Variable Wind from NE

Today
High -- | Low -- °F
--% Chance of Precip.
Yesterday
High -- | Low -- °F
Precip. -- in
6:21 AM 5:54 PM
Full, 100% visible
Pressure 30.60 in
Visibility 10.0 miles
Clouds Clear
Windchill 8 °F
Dew Point 7 °F
Humidity 73%
Rainfall 0.00 in
Snow Depth Not available.
UV 0 out of 12
Pollen .90 out of 12
Air Quality Not available.
Flu Activity Not available.
METAR KM30 060335Z AUTO 04003KT 10SM CLR M10/M14 A3060 RMK AO2 T11011141

More Conditions Fewer Conditions

Pressure 30.60 in
Visibility 10.0 miles
Clouds Clear
Windchill 8 °F
Dew Point 7 °F
Humidity 73%
Rainfall 0.00 in
Snow Depth Not available.
UV 0 out of 12
Pollen .90 out of 12
Air Quality Not available.
Flu Activity Not available.
METAR KM30 060335Z AUTO 04003KT 10SM CLR M10/M14 A3060 RMK AO2 T11011141

More Conditions Fewer Conditions

10-Day Weather Forecast

Almanac

Astronomy

Mar. 05, 2015 Rise Set
Actual Time
Civil Twilight
Nautical Twilight
Astronomical Twilight
Moon
Length of Visible Light
Length of Day
Tomorrow will be .
, % of the Moon is Illuminated

Today's Extremes

State Highs State Lows

Community

WunderPhotos

Upload Photos

1,803,171 photos uploaded!

WunderBlogs® & News

Nearby

Air Quality

  Air Quality AQ Index Pollutant
Not available.

Snow Depth

Station Depth Elevation

Earthquake Activity

City Distance Mag. Time & Date
Minimum magnitude displayed is 2.5.

Coastal Water Temperatures

Place Temperature

Nearby Weather Stations

Flood Warning
Statement as of 9:36 PM CST on March 05, 2015

The Flood Warning continues for
the Ohio River at Cairo.
* From Tuesday morning until further notice.
* At 9:00 PM Thursday the stage was 29.8 feet.
* Flood stage is 40.0 feet.
* Forecast... the river is expected to rise to near flood stage
Tuesday morning.
* Impact... at 40.0 feet... minor flooding occurs affecting mainly
agricultural bottomland and low lying areas.


Lat... Lon 3709 8946 3651 8918 3680 8900 3709 8907
      3717 8916